Time;durP1;ratioP1;P1;durP2;ratioP2;P2;SDS_P1;SDS_P2;PMS_P1;PMS_P2;Temp;Humidity;BMP_temperature;BMP_pressure;BME280_temperature;BME280_humidity;BME280_pressure;Samples;Min_cycle;Max_cycle;Signal;HPM_P1;HPM_P2
2023/10/18 00:01:09;;;;;;;;;;;;;;;17.34;47.43;101177.25;4947698;29;1069;-53
2023/10/18 00:03:36;;;;;;;;;;;;;;;17.23;47.90;101179.09;4955896;29;1234;-55
2023/10/18 00:06:18;;;;;;;;;;;;;;;16.97;46.95;101176.25;4957444;29;1017;-55
2023/10/18 00:08:47;;;;;;;;;;;;;;;17.74;47.33;101173.78;4945206;29;1047;-55
2023/10/18 00:11:13;;;;;;;;;;;;;;;17.19;47.27;101165.06;4958052;29;1145;-53
2023/10/18 00:13:39;;;;;;;;;;;;;;;16.89;46.85;101172.06;4951535;29;934;-53
2023/10/18 00:16:05;;;;;;;;;;;;;;;17.44;46.84;101169.84;4957679;29;1990;-54
2023/10/18 00:18:32;;;;;;;;;;;;;;;17.73;47.58;101172.13;4958092;29;1117;-53
2023/10/18 00:20:59;;;;;;;;;;;;;;;17.08;47.92;101168.88;4957668;29;1018;-53
2023/10/18 00:23:25;;;;;;;;;;;;;;;17.01;46.77;101166.38;4957774;29;1104;-55
2023/10/18 00:25:51;;;;;;;;;;;;;;;17.71;47.39;101159.72;4957255;29;867;-54
2023/10/18 00:28:17;;;;;;;;;;;;;;;17.58;47.50;101163.84;4957277;29;1181;-52
2023/10/18 00:30:42;;;;;;;;;;;;;;;17.09;47.48;101163.09;4959796;28;1169;-52
2023/10/18 00:33:09;;;;;;;;;;;;;;;16.84;46.68;101157.44;4961288;29;1131;-53
2023/10/18 00:35:36;;;;;;;;;;;;;;;17.66;47.24;101159.75;4959622;29;1906;-52
2023/10/18 00:38:03;;;;;;;;;;;;;;;17.24;47.34;101161.53;4953660;29;882;-51
2023/10/18 00:43:04;;;;;;;;;;;;;;;16.87;46.04;101151.41;4961009;28;1129;-54
2023/10/18 00:45:31;;;;;;;;;;;;;;;17.89;46.67;101161.16;4959844;29;1607;-54
2023/10/18 00:48:00;;;;;;;;;;;;;;;17.05;47.52;101159.22;4960579;29;1065;-51
2023/10/18 00:50:27;;;;;;;;;;;;;;;16.87;46.88;101159.66;4958232;29;1232;-53
2023/10/18 00:52:53;;;;;;;;;;;;;;;17.55;47.28;101170.69;4961312;29;1054;-52
2023/10/18 00:55:19;;;;;;;;;;;;;;;16.99;47.13;101162.25;4960817;29;1987;-54
2023/10/18 00:57:45;;;;;;;;;;;;;;;16.76;46.98;101159.59;4960071;29;1057;-52
2023/10/18 01:00:12;;;;;;;;;;;;;;;17.88;46.73;101162.25;4960885;29;1133;-53
2023/10/18 01:02:43;;;;;;;;;;;;;;;17.11;47.13;101160.09;4950202;29;1013;-53
2023/10/18 01:05:14;;;;;;;;;;;;;;;16.81;46.81;101166.22;4945640;29;1104;-55
2023/10/18 01:07:42;;;;;;;;;;;;;;;16.65;46.26;101160.63;4960516;29;1019;-53
2023/10/18 01:10:09;;;;;;;;;;;;;;;17.88;46.58;101153.97;4959294;29;1270;-51
2023/10/18 01:12:35;;;;;;;;;;;;;;;17.02;47.37;101156.22;4960407;29;1029;-53
2023/10/18 01:15:01;;;;;;;;;;;;;;;16.85;46.78;101161.84;4960105;29;1905;-52
2023/10/18 01:17:27;;;;;;;;;;;;;;;16.71;46.43;101156.81;4960030;29;1130;-53
2023/10/18 01:19:54;;;;;;;;;;;;;;;18.12;46.64;101157.91;4959960;29;1065;-54
2023/10/18 01:22:19;;;;;;;;;;;;;;;17.16;47.81;101157.38;4959038;29;1133;-53
2023/10/18 01:24:45;;;;;;;;;;;;;;;16.91;46.91;101160.81;4958752;29;1120;-53
2023/10/18 01:27:12;;;;;;;;;;;;;;;16.77;46.53;101146.69;4952704;29;1002;-51
2023/10/18 01:29:38;;;;;;;;;;;;;;;17.58;47.30;101166.59;4959984;29;1077;-53
2023/10/18 01:32:04;;;;;;;;;;;;;;;17.13;47.39;101162.59;4960320;29;1037;-53
2023/10/18 01:34:31;;;;;;;;;;;;;;;16.91;46.48;101160.81;4953313;29;1975;-50
2023/10/18 01:37:00;;;;;;;;;;;;;;;16.69;46.18;101164.50;4950275;29;1101;-51
2023/10/18 01:39:29;;;;;;;;;;;;;;;16.91;46.28;101160.81;4959577;29;1096;-51
2023/10/18 01:41:54;;;;;;;;;;;;;;;17.28;47.41;101162.66;4946537;29;1066;-50
2023/10/18 01:44:35;;;;;;;;;;;;;;;16.76;47.32;101159.59;4959877;29;1197;-53
2023/10/18 01:47:07;;;;;;;;;;;;;;;17.77;46.93;101170.47;4960123;29;1189;-48
2023/10/18 01:49:38;;;;;;;;;;;;;;;17.02;47.76;101175.44;4952350;29;1069;-51
2023/10/18 01:52:04;;;;;;;;;;;;;;;16.79;47.04;101173.88;4953594;29;1013;-53
2023/10/18 01:54:32;;;;;;;;;;;;;;;17.83;47.03;101171.31;4950203;29;1965;-55
2023/10/18 01:56:58;;;;;;;;;;;;;;;17.07;47.45;101172.72;4959388;29;1045;-54
2023/10/18 01:59:30;;;;;;;;;;;;;;;16.86;46.98;101166.25;4958364;29;1142;-55
2023/10/18 02:01:58;;;;;;;;;;;;;;;16.60;46.45;101172.41;4953726;29;1458;-55
2023/10/18 02:04:30;;;;;;;;;;;;;;;17.78;46.78;101174.91;4959331;29;1156;-55
2023/10/18 02:07:02;;;;;;;;;;;;;;;17.09;47.63;101167.78;4959628;29;1117;-53
2023/10/18 02:09:32;;;;;;;;;;;;;;;16.82;46.89;101171.44;4958971;29;1069;-53
2023/10/18 02:11:58;;;;;;;;;;;;;;;17.78;47.01;101174.91;4951261;29;1277;-53
2023/10/18 02:14:24;;;;;;;;;;;;;;;17.10;47.60;101180.44;4956644;28;1965;-54
2023/10/18 02:16:49;;;;;;;;;;;;;;;16.88;46.92;101167.66;4958228;29;1131;-54
2023/10/18 02:19:21;;;;;;;;;;;;;;;17.02;46.74;101168.00;4959021;29;1002;-52
2023/10/18 02:21:47;;;;;;;;;;;;;;;17.21;47.39;101167.56;4959087;29;1048;-54
2023/10/18 02:24:13;;;;;;;;;;;;;;;16.92;47.29;101171.53;4959271;29;1121;-53
2023/10/18 02:26:53;;;;;;;;;;;;;;;18.39;46.65;101166.97;4958625;29;839;-50
2023/10/18 02:29:20;;;;;;;;;;;;;;;17.26;47.87;101173.06;4958933;29;1120;-50
2023/10/18 02:31:46;;;;;;;;;;;;;;;17.09;46.93;101176.03;4959264;28;1109;-53
2023/10/18 02:34:14;;;;;;;;;;;;;;;17.42;47.20;101172.03;4958702;29;1975;-52
2023/10/18 02:36:40;;;;;;;;;;;;;;;17.32;47.60;101162.91;4957569;29;1067;-53
2023/10/18 02:39:09;;;;;;;;;;;;;;;16.97;46.99;101162.50;4947154;29;1178;-50
2023/10/18 02:41:37;;;;;;;;;;;;;;;17.78;47.41;101155.63;4958635;29;1031;-53
2023/10/18 02:44:07;;;;;;;;;;;;;;;17.52;48.02;101163.00;4959047;29;1050;-50
2023/10/18 02:46:33;;;;;;;;;;;;;;;17.10;47.47;101155.69;4958701;29;1046;-53
2023/10/18 02:49:00;;;;;;;;;;;;;;;16.91;46.57;101155.31;4958544;29;1003;-49
2023/10/18 02:51:26;;;;;;;;;;;;;;;17.65;47.21;101152.59;4952638;29;839;-51
2023/10/18 02:53:52;;;;;;;;;;;;;;;17.08;47.64;101146.88;4958635;28;1136;-52
2023/10/18 02:56:26;;;;;;;;;;;;;;;16.92;47.05;101146.81;4957261;29;1911;-54
2023/10/18 02:58:55;;;;;;;;;;;;;;;17.88;46.90;101140.22;4958747;29;1195;-56
2023/10/18 03:01:22;;;;;;;;;;;;;;;17.10;47.48;101140.03;4957489;29;1402;-52
2023/10/18 03:03:54;;;;;;;;;;;;;;;17.03;46.85;101138.63;4958368;29;1108;-54
2023/10/18 03:06:24;;;;;;;;;;;;;;;17.53;47.43;101134.41;4957337;29;1169;-51
2023/10/18 03:08:50;;;;;;;;;;;;;;;17.05;47.28;101145.50;4958400;29;1069;-54
2023/10/18 03:11:17;;;;;;;;;;;;;;;18.54;46.79;101152.38;4958047;29;1068;-53
2023/10/18 03:13:42;;;;;;;;;;;;;;;17.41;48.18;101142.88;4955805;29;1053;-49
2023/10/18 03:18:44;;;;;;;;;;;;;;;17.03;46.62;101153.19;4957923;29;1855;-52
2023/10/18 03:21:22;;;;;;;;;;;;;;;16.89;46.27;101147.34;4957815;29;1105;-52
2023/10/18 03:23:51;;;;;;;;;;;;;;;17.37;47.60;101157.44;4958683;29;1049;-49
2023/10/18 03:26:22;;;;;;;;;;;;;;;16.95;46.97;101150.94;4957591;29;1172;-52
2023/10/18 03:28:50;;;;;;;;;;;;;;;17.30;47.41;101152.19;4958960;29;1130;-52
2023/10/18 03:31:27;;;;;;;;;;;;;;;17.55;47.42;101143.19;4961823;28;1124;-52
2023/10/18 03:33:55;;;;;;;;;;;;;;;17.10;47.27;101151.03;4946175;28;1406;-54
2023/10/18 03:36:21;;;;;;;;;;;;;;;16.91;46.62;101155.31;4965485;28;1902;-56
2023/10/18 03:38:53;;;;;;;;;;;;;;;16.82;46.10;101140.44;4949978;29;1074;-54
2023/10/18 03:41:25;;;;;;;;;;;;;;;17.70;46.87;101142.41;4957720;29;990;-51
2023/10/18 03:43:58;;;;;;;;;;;;;;;17.31;47.95;101136.56;4958232;28;1058;-51
2023/10/18 03:46:38;;;;;;;;;;;;;;;16.95;47.24;101139.16;4957980;29;1018;-50
2023/10/18 03:49:08;;;;;;;;;;;;;;;17.00;46.79;101137.25;4943169;28;1200;-52
2023/10/18 03:51:33;;;;;;;;;;;;;;;17.27;47.77;101141.75;4948980;29;1043;-53
2023/10/18 03:54:00;;;;;;;;;;;;;;;17.07;47.15;101143.31;4954996;29;1983;-55
2023/10/18 03:56:26;;;;;;;;;;;;;;;16.73;46.95;101135.44;4956899;29;1194;-58
2023/10/18 03:59:38;;;;;;;;;;;;;;;16.76;46.30;101139.56;4943918;29;1097;-57
2023/10/18 04:01:44;;;;;;;;;;;;;;;17.66;46.70;101138.56;4951652;29;1264;-57
2023/10/18 04:04:18;;;;;;;;;;;;;;;17.04;46.97;101132.03;4955987;28;1226;-57
2023/10/18 04:06:43;;;;;;;;;;;;;;;16.84;46.27;101121.75;4948886;29;1089;-57
2023/10/18 04:09:16;;;;;;;;;;;;;;;16.75;45.76;101119.50;4961519;29;1188;-56
2023/10/18 04:11:42;;;;;;;;;;;;;;;17.76;46.79;101119.31;4943855;29;1093;-56
2023/10/18 04:14:10;;;;;;;;;;;;;;;16.97;47.44;101113.06;4947781;29;1981;-56
2023/10/18 04:16:36;;;;;;;;;;;;;;;16.79;46.78;101113.47;4960818;29;1272;-56
2023/10/18 04:19:02;;;;;;;;;;;;;;;16.79;46.54;101105.22;4960557;29;2522;-57
2023/10/18 04:21:27;;;;;;;;;;;;;;;17.27;47.33;101106.84;4954065;28;1834;-55
2023/10/18 04:23:56;;;;;;;;;;;;;;;16.95;47.12;101108.94;4949375;29;2184;-55
2023/10/18 04:26:22;;;;;;;;;;;;;;;17.15;47.32;101105.44;4954560;29;1851;-53
2023/10/18 04:28:48;;;;;;;;;;;;;;;17.33;47.78;101102.19;4951382;28;2354;-55
2023/10/18 04:31:14;;;;;;;;;;;;;;;16.92;47.46;101100.13;4956273;28;2070;-53
2023/10/18 04:33:49;;;;;;;;;;;;;;;17.08;47.51;101101.03;4949486;29;1994;-52
2023/10/18 04:36:20;;;;;;;;;;;;;;;18.56;45.93;101100.59;4957082;28;1910;-53
2023/10/18 04:38:46;;;;;;;;;;;;;;;17.72;47.76;101101.69;4956240;29;1396;-50
2023/10/18 04:41:28;;;;;;;;;;;;;;;17.48;48.29;101100.59;4962205;28;1335;-51
2023/10/18 04:46:27;;;;;;;;;;;;;;;17.06;49.34;101108.69;4950238;29;1457;-54
2023/10/18 04:51:27;;;;;;;;;;;;;;;16.81;50.12;101117.59;4956647;29;1054;-52
2023/10/18 04:53:54;;;;;;;;;;;;;;;16.72;50.38;101111.81;4951150;29;1077;-51
2023/10/18 04:56:19;;;;;;;;;;;;;;;16.64;50.41;101123.28;4960267;29;1974;-49
2023/10/18 04:58:45;;;;;;;;;;;;;;;16.54;50.55;101125.97;4956094;29;1355;-50
2023/10/18 05:01:13;;;;;;;;;;;;;;;16.45;50.74;101124.81;4948420;29;1213;-49
2023/10/18 05:03:39;;;;;;;;;;;;;;;16.40;50.85;101129.16;4951556;29;2311;-52
2023/10/18 05:06:05;;;;;;;;;;;;;;;16.55;50.86;101135.84;4952488;29;1153;-53
2023/10/18 05:08:30;;;;;;;;;;;;;;;17.30;49.03;101135.72;4960043;29;1117;-52
2023/10/18 05:11:22;;;;;;;;;;;;;;;16.77;50.44;101128.31;4960294;29;1038;-54
2023/10/18 05:13:42;;;;;;;;;;;;;;;16.52;50.95;101141.88;4946534;29;1562;-53
2023/10/18 05:16:10;;;;;;;;;;;;;;;16.76;50.80;101134.91;4954119;28;1923;-52
2023/10/18 05:18:37;;;;;;;;;;;;;;;17.42;48.95;101138.22;4956316;28;1204;-55
2023/10/18 05:21:08;;;;;;;;;;;;;;;16.82;50.38;101146.72;4955792;28;1105;-54
2023/10/18 05:23:34;;;;;;;;;;;;;;;16.58;51.07;101146.31;4955431;29;1041;-51
2023/10/18 05:26:16;;;;;;;;;;;;;;;16.47;51.43;101144.59;4959777;29;1140;-53
2023/10/18 05:37:13;;;;;;;;;;;;;;;16.58;51.06;101152.63;4950721;28;1485;-56
2023/10/18 05:39:27;;;;;;;;;;;;;;;16.41;51.60;101150.03;4942702;29;1364;-54
2023/10/18 05:41:59;;;;;;;;;;;;;;;17.64;48.88;101157.25;4956566;29;1180;-51
2023/10/18 05:44:28;;;;;;;;;;;;;;;17.03;50.37;101164.19;4954759;28;1046;-51
2023/10/18 05:46:54;;;;;;;;;;;;;;;16.69;51.17;101160.91;4954021;29;1290;-55
2023/10/18 05:49:27;;;;;;;;;;;;;;;16.50;51.81;101160.53;4948078;29;1007;-52
2023/10/18 05:51:57;;;;;;;;;;;;;;;16.36;51.91;101169.22;4953332;28;1176;-55
2023/10/18 05:54:24;;;;;;;;;;;;;;;17.20;50.56;101166.72;4959228;29;1907;-56
2023/10/18 05:56:50;;;;;;;;;;;;;;;17.16;50.28;101156.53;4950271;28;1219;-56
2023/10/18 05:59:27;;;;;;;;;;;;;;;16.67;51.43;101161.19;4954986;29;1255;-53
2023/10/18 06:01:54;;;;;;;;;;;;;;;16.48;51.80;101158.06;4955663;28;1209;-58
2023/10/18 06:04:25;;;;;;;;;;;;;;;16.39;51.94;101160.44;4950165;28;1775;-60
2023/10/18 06:07:09;;;;;;;;;;;;;;;17.73;49.24;101155.63;4953833;29;1219;-50
2023/10/18 06:09:45;;;;;;;;;;;;;;;16.92;51.02;101159.72;4947072;29;982;-57
2023/10/18 06:12:14;;;;;;;;;;;;;;;16.60;51.53;101146.88;4944737;29;1007;-55
2023/10/18 06:14:40;;;;;;;;;;;;;;;16.46;52.12;101153.91;4946075;29;1875;-54
2023/10/18 06:17:19;;;;;;;;;;;;;;;17.49;49.76;101149.78;4951875;29;894;-57
2023/10/18 06:19:45;;;;;;;;;;;;;;;17.12;50.39;101149.94;4954592;29;1085;-55
2023/10/18 06:22:38;;;;;;;;;;;;;;;16.72;51.72;101152.19;4958652;29;1140;-55
2023/10/18 06:25:06;;;;;;;;;;;;;;;16.49;52.20;101153.38;4945869;29;1192;-57
2023/10/18 06:27:39;;;;;;;;;;;;;;;16.55;52.19;101150.41;4950497;28;1083;-58
2023/10/18 06:30:07;;;;;;;;;;;;;;;17.35;50.19;101157.72;4939440;29;1054;-58
2023/10/18 06:32:33;;;;;;;;;;;;;;;16.76;51.43;101164.28;4937979;29;1073;-58
2023/10/18 06:35:04;;;;;;;;;;;;;;;16.58;52.09;101163.59;4950136;29;2531;-56
2023/10/18 06:37:41;;;;;;;;;;;;;;;16.99;51.42;101168.56;4952899;29;1263;-57
2023/10/18 06:43:08;;;;;;;;;;;;;;;16.75;51.45;101173.59;4948330;29;1275;-57
2023/10/18 06:45:37;;;;;;;;;;;;;;;16.55;52.12;101166.88;4958525;29;1100;-59
2023/10/18 06:48:03;;;;;;;;;;;;;;;16.39;52.46;101165.94;4958170;29;1549;-60
2023/10/18 06:50:32;;;;;;;;;;;;;;;17.40;50.58;101170.66;4958046;29;1155;-57
2023/10/18 06:52:59;;;;;;;;;;;;;;;17.12;51.12;101159.00;4952066;29;1452;-60
2023/10/18 06:55:44;;;;;;;;;;;;;;;16.60;52.08;101135.88;4957803;29;1906;-51
2023/10/18 07:00:51;;;;;;;;;;;;;;;16.42;52.78;101157.19;4952946;28;1345;-58
2023/10/18 07:03:17;;;;;;;;;;;;;;;17.59;50.59;101160.81;4953452;28;1901;-55
2023/10/18 07:05:44;;;;;;;;;;;;;;;17.13;51.47;101157.91;4955435;29;911;-56
2023/10/18 07:08:19;;;;;;;;;;;;;;;16.75;52.25;101157.94;4958060;29;1131;-57
2023/10/18 07:10:53;;;;;;;;;;;;;;;16.88;52.41;101162.16;4946614;29;1038;-58
2023/10/18 07:13:21;;;;;;;;;;;;;;;17.34;50.94;101160.75;4945030;28;1468;-59
2023/10/18 07:15:47;;;;;;;;;;;;;;;16.76;52.50;101159.59;4957588;29;1988;-59
2023/10/18 07:18:14;;;;;;;;;;;;;;;16.59;52.65;101159.78;4957360;29;1224;-60
2023/10/18 07:20:41;;;;;;;;;;;;;;;16.52;52.72;101161.94;4956885;28;1195;-58
2023/10/18 07:23:17;;;;;;;;;;;;;;;17.74;50.26;101157.28;4944530;28;1437;-56
2023/10/18 07:25:43;;;;;;;;;;;;;;;17.09;51.74;101148.53;4950277;29;1142;-56
2023/10/18 07:28:09;;;;;;;;;;;;;;;16.81;52.08;101144.25;4950482;29;1054;-58
2023/10/18 07:30:38;;;;;;;;;;;;;;;16.65;52.66;101162.53;4939191;29;987;-58
2023/10/18 07:33:04;;;;;;;;;;;;;;;16.51;52.74;101153.94;4951516;29;1830;-58
2023/10/18 07:35:31;;;;;;;;;;;;;;;17.22;51.73;101160.97;4945842;28;1914;-57
2023/10/18 07:37:57;;;;;;;;;;;;;;;17.36;51.06;101159.38;4955858;28;1215;-57
2023/10/18 07:40:23;;;;;;;;;;;;;;;16.86;52.44;101166.25;4958272;28;1359;-58
2023/10/18 07:42:51;;;;;;;;;;;;;;;16.67;52.76;101161.19;4965193;28;1204;-58
2023/10/18 07:45:17;;;;;;;;;;;;;;;16.50;52.94;101160.53;4964984;28;1286;-57
2023/10/18 07:47:43;;;;;;;;;;;;;;;16.41;52.92;101158.28;4963817;28;1268;-57
2023/10/18 07:52:54;;;;;;;;;;;;;;;17.11;51.88;101149.13;4958736;28;1323;-57
2023/10/18 07:55:21;;;;;;;;;;;;;;;16.75;52.65;101141.47;4952358;29;1920;-57
2023/10/18 07:57:47;;;;;;;;;;;;;;;16.63;52.74;101146.34;4959104;29;1769;-57
2023/10/18 08:00:22;;;;;;;;;;;;;;;17.81;50.45;101146.03;4957979;28;1385;-58
2023/10/18 08:02:48;;;;;;;;;;;;;;;17.08;51.96;101150.47;4956127;28;2203;-58
2023/10/18 08:05:18;;;;;;;;;;;;;;;16.81;52.44;101144.25;4954718;29;1022;-58
2023/10/18 08:07:49;;;;;;;;;;;;;;;16.65;52.86;101146.91;4961279;29;1440;-57
2023/10/18 08:10:19;;;;;;;;;;;;;;;17.33;51.64;101157.16;4960724;29;1073;-58
2023/10/18 08:12:48;;;;;;;;;;;;;;;17.12;52.01;101155.44;4961009;29;1326;-58
2023/10/18 08:15:13;;;;;;;;;;;;;;;16.70;52.96;101155.16;4960529;29;1906;-58
2023/10/18 08:17:46;;;;;;;;;;;;;;;16.58;53.25;101158.13;4955344;29;1165;-58
2023/10/18 08:22:50;;;;;;;;;;;;;;;17.44;51.26;101161.59;4941722;29;984;-58
2023/10/18 08:25:21;;;;;;;;;;;;;;;16.89;52.49;101141.03;4959786;28;1138;-58
2023/10/18 08:27:50;;;;;;;;;;;;;;;16.74;52.95;101150.78;4961586;29;1232;-57
2023/10/18 08:31:03;;;;;;;;;;;;;;;16.57;53.16;101153.72;4954371;29;1050;-58
2023/10/18 08:33:05;;;;;;;;;;;;;;;17.73;50.79;101160.31;4957183;29;1849;-57
2023/10/18 08:35:34;;;;;;;;;;;;;;;17.05;52.31;101166.66;4960316;29;1981;-57
2023/10/18 08:38:01;;;;;;;;;;;;;;;16.76;52.72;101173.34;4960981;29;1319;-56
2023/10/18 08:43:08;;;;;;;;;;;;;;;16.49;53.29;101164.38;4947592;28;1495;-58
2023/10/18 08:45:36;;;;;;;;;;;;;;;17.72;50.83;101156.72;4960187;29;1492;-58
2023/10/18 08:48:10;;;;;;;;;;;;;;;17.01;52.58;101155.41;4954957;28;1169;-58
2023/10/18 08:50:39;;;;;;;;;;;;;;;16.75;53.10;101149.72;4961756;28;1001;-59
2023/10/18 08:53:05;;;;;;;;;;;;;;;16.62;53.24;101157.59;4957166;29;1246;-62
2023/10/18 08:55:45;;;;;;;;;;;;;;;16.55;53.51;101160.56;4950480;29;1972;-58
2023/10/18 08:58:11;;;;;;;;;;;;;;;17.56;51.14;101164.09;4958264;29;1020;-61
2023/10/18 09:03:02;;;;;;;;;;;;;;;16.77;53.09;101164.03;4955810;28;1895;-59
2023/10/18 09:05:28;;;;;;;;;;;;;;;16.91;52.99;101167.16;4958659;29;1187;-60
2023/10/18 09:07:54;;;;;;;;;;;;;;;17.52;51.15;101163.00;4960347;29;1128;-59
2023/10/18 09:15:48;;;;;;;;;;;;;;;16.62;53.36;101158.44;4956974;29;1991;-61
2023/10/18 09:18:13;;;;;;;;;;;;;;;17.09;52.75;101156.78;4959389;29;1148;-62
2023/10/18 09:20:39;;;;;;;;;;;;;;;17.45;51.50;101157.75;4959636;29;1056;-60
2023/10/18 09:23:05;;;;;;;;;;;;;;;17.00;52.83;101153.72;4950144;29;1298;-58
2023/10/18 09:25:49;;;;;;;;;;;;;;;16.76;53.10;101158.78;4958127;28;1345;-57
2023/10/18 09:28:20;;;;;;;;;;;;;;;16.64;53.44;101161.72;4953711;28;1322;-57
2023/10/18 09:30:46;;;;;;;;;;;;;;;16.87;53.30;101156.91;4950860;29;1121;-51
2023/10/18 09:33:14;;;;;;;;;;;;;;;17.31;52.12;101153.84;4958130;29;2260;-56
2023/10/18 09:35:40;;;;;;;;;;;;;;;16.86;53.28;101158.84;4959467;29;1910;-50
2023/10/18 09:38:08;;;;;;;;;;;;;;;16.69;53.34;101159.03;4959839;28;1377;-58
2023/10/18 09:40:37;;;;;;;;;;;;;;;16.50;53.69;101149.56;4959330;29;1129;-56
2023/10/18 09:43:02;;;;;;;;;;;;;;;16.85;53.22;101156.38;4959209;29;1357;-51
2023/10/18 09:45:28;;;;;;;;;;;;;;;17.42;51.83;101158.28;4959124;29;1095;-55
2023/10/18 09:47:56;;;;;;;;;;;;;;;16.86;53.10;101166.25;4957749;29;1402;-53
2023/10/18 09:50:24;;;;;;;;;;;;;;;16.61;53.89;101159.50;4956076;29;1030;-54
2023/10/18 09:52:56;;;;;;;;;;;;;;;16.48;53.83;101158.06;4954921;29;1062;-57
2023/10/18 09:55:23;;;;;;;;;;;;;;;17.77;51.19;101147.66;4956416;29;1915;-58
2023/10/18 09:58:15;;;;;;;;;;;;;;;17.06;52.91;101157.31;4949587;29;1188;-57
2023/10/18 10:00:47;;;;;;;;;;;;;;;16.74;53.56;101149.97;4957365;29;1486;-57
2023/10/18 10:03:16;;;;;;;;;;;;;;;16.62;53.78;101146.59;4957259;28;2451;-57
2023/10/18 10:05:42;;;;;;;;;;;;;;;16.69;53.88;101148.03;4958492;29;863;-58
2023/10/18 10:08:07;;;;;;;;;;;;;;;17.53;51.85;101142.66;4956763;29;1013;-59
2023/10/18 10:10:45;;;;;;;;;;;;;;;16.90;53.29;101137.19;4948248;29;1022;-58
2023/10/18 10:13:11;;;;;;;;;;;;;;;16.67;53.72;101144.72;4946565;29;1129;-55
2023/10/18 10:15:37;;;;;;;;;;;;;;;16.58;53.78;101135.34;4958784;29;1973;-52
2023/10/18 10:18:06;;;;;;;;;;;;;;;17.81;51.28;101134.16;4949996;29;1129;-56
2023/10/18 10:20:31;;;;;;;;;;;;;;;17.07;53.01;101137.00;4958774;29;1014;-52
2023/10/18 10:23:02;;;;;;;;;;;;;;;16.80;53.32;101131.59;4957422;28;1113;-55
2023/10/18 10:25:33;;;;;;;;;;;;;;;16.62;53.66;101138.38;4947829;29;1604;-51
2023/10/18 10:28:14;;;;;;;;;;;;;;;16.52;53.65;101136.38;4956039;29;1532;-50
2023/10/18 10:30:46;;;;;;;;;;;;;;;17.42;52.62;101130.00;4958584;29;835;-51
2023/10/18 10:33:14;;;;;;;;;;;;;;;17.23;52.80;101129.63;4951941;29;2241;-50
2023/10/18 10:35:47;;;;;;;;;;;;;;;16.83;53.64;101128.31;4951657;29;1910;-46
2023/10/18 10:38:18;;;;;;;;;;;;;;;16.62;53.96;101135.63;4957441;29;1188;-49
2023/10/18 10:40:48;;;;;;;;;;;;;;;16.52;53.67;101125.41;4956684;29;1061;-46
2023/10/18 10:43:13;;;;;;;;;;;;;;;16.81;53.82;101127.78;4947452;29;1066;-46
2023/10/18 10:45:43;;;;;;;;;;;;;;;17.38;52.34;101126.94;4958073;28;1176;-47
2023/10/18 10:48:15;;;;;;;;;;;;;;;16.82;53.66;101121.19;4944182;28;2423;-48
2023/10/18 10:50:53;;;;;;;;;;;;;;;16.66;53.78;101121.13;4953124;28;1054;-44
2023/10/18 10:53:57;;;;;;;;;;;;;;;17.07;53.48;101121.34;4956328;29;1045;-44
2023/10/18 10:56:23;;;;;;;;;;;;;;;17.21;52.67;101112.59;4915875;28;2577;-51
2023/10/18 10:58:55;;;;;;;;;;;;;;;16.84;53.50;101116.25;4945840;29;954;-48
2023/10/18 11:01:40;;;;;;;;;;;;;;;16.60;54.09;101106.50;4950607;28;1338;-47
2023/10/18 11:04:11;;;;;;;;;;;;;;;16.49;54.11;101114.97;4936254;28;8443;-45
2023/10/18 11:06:42;;;;;;;;;;;;;;;17.48;52.48;101115.16;4936124;29;1335;-49
2023/10/18 11:09:09;;;;;;;;;;;;;;;17.23;52.79;101110.41;4927267;29;1315;-49
2023/10/18 11:11:35;;;;;;;;;;;;;;;16.79;54.00;101113.47;4938420;29;1197;-50
2023/10/18 11:14:01;;;;;;;;;;;;;;;16.65;54.04;101107.63;4925704;29;872;-49
2023/10/18 11:16:26;;;;;;;;;;;;;;;16.49;54.09;101115.78;4938022;29;1914;-48
2023/10/18 11:18:52;;;;;;;;;;;;;;;17.35;52.95;101122.00;4937013;29;971;-51
2023/10/18 11:21:24;;;;;;;;;;;;;;;17.25;52.77;101120.03;4938495;29;1116;-51
2023/10/18 11:23:51;;;;;;;;;;;;;;;16.86;53.76;101119.56;4934518;29;1535;-51
2023/10/18 11:26:24;;;;;;;;;;;;;;;16.64;53.80;101116.97;4938670;29;1073;-53
2023/10/18 11:28:59;;;;;;;;;;;;;;;16.56;54.39;101110.06;4931812;29;1116;-50
2023/10/18 11:31:28;;;;;;;;;;;;;;;17.74;51.75;101116.03;4933700;29;1243;-55
2023/10/18 11:36:19;;;;;;;;;;;;;;;16.79;53.80;101105.22;4938193;29;1911;-49
2023/10/18 11:39:32;;;;;;;;;;;;;;;16.62;54.13;101103.53;4926687;29;1023;-46
2023/10/18 11:41:36;;;;;;;;;;;;;;;16.43;54.28;101095.69;4924103;29;1426;-50
2023/10/18 11:44:06;;;;;;;;;;;;;;;16.40;53.88;101100.91;4926000;29;1193;-51
2023/10/18 11:46:56;;;;;;;;;;;;;;;17.24;53.45;101103.81;4938787;29;1104;-51
2023/10/18 11:49:21;;;;;;;;;;;;;;;17.05;53.64;101101.53;4931887;29;1157;-51
2023/10/18 11:51:51;;;;;;;;;;;;;;;16.72;54.02;101098.06;4932137;29;1105;-54
2023/10/18 11:54:32;;;;;;;;;;;;;;;16.53;54.24;101099.59;4926612;29;1983;-51
2023/10/18 11:56:57;;;;;;;;;;;;;;;16.46;54.39;101102.59;4935263;29;1081;-47
2023/10/18 11:59:28;;;;;;;;;;;;;;;17.44;52.61;101109.34;4928677;29;1027;-53
2023/10/18 12:01:54;;;;;;;;;;;;;;;16.88;53.89;101100.88;4934636;29;1073;-53
2023/10/18 12:04:27;;;;;;;;;;;;;;;16.60;54.53;101102.94;4932438;29;3023;-52
2023/10/18 12:06:52;;;;;;;;;;;;;;;16.91;54.19;101109.47;4931697;29;1114;-52
2023/10/18 12:11:43;;;;;;;;;;;;;;;16.95;53.65;101096.00;4924461;29;1089;-54
2023/10/18 12:14:09;;;;;;;;;;;;;;;16.66;54.18;101099.16;4931255;29;1149;-54
2023/10/18 12:16:34;;;;;;;;;;;;;;;16.56;54.10;101104.56;4926976;29;1902;-50
2023/10/18 12:19:00;;;;;;;;;;;;;;;16.46;54.35;101099.03;4934053;29;1042;-54
2023/10/18 12:21:32;;;;;;;;;;;;;;;16.59;54.57;101098.53;4937941;29;1116;-53
2023/10/18 12:23:57;;;;;;;;;;;;;;;17.49;52.62;101093.97;4922726;29;1030;-48
2023/10/18 12:26:26;;;;;;;;;;;;;;;16.89;54.00;101100.66;4929944;29;1026;-54
2023/10/18 12:28:57;;;;;;;;;;;;;;;16.63;54.28;101102.41;4938199;29;1093;-54
2023/10/18 12:31:29;;;;;;;;;;;;;;;16.51;54.16;101096.28;4925850;29;942;-54
2023/10/18 12:34:00;;;;;;;;;;;;;;;17.51;52.73;101100.03;4940331;29;2585;-53
2023/10/18 12:36:38;;;;;;;;;;;;;;;17.09;53.63;101091.66;4934748;29;1902;-53
2023/10/18 12:39:09;;;;;;;;;;;;;;;16.71;54.35;101090.09;4932084;29;989;-52
2023/10/18 12:41:41;;;;;;;;;;;;;;;16.58;54.12;101092.22;4941463;29;1196;-53
2023/10/18 12:44:18;;;;;;;;;;;;;;;16.44;54.47;101085.56;4923020;29;885;-52
2023/10/18 12:46:43;;;;;;;;;;;;;;;16.34;54.56;101086.31;4923925;29;1194;-51
2023/10/18 12:49:11;;;;;;;;;;;;;;;17.52;52.71;101082.44;4940517;29;1201;-54
2023/10/18 12:51:42;;;;;;;;;;;;;;;16.86;54.14;101078.38;4939575;29;1438;-55
2023/10/18 12:54:19;;;;;;;;;;;;;;;16.59;54.47;101091.16;4931870;29;1002;-54
2023/10/18 12:59:37;;;;;;;;;;;;;;;17.48;52.84;101073.91;4939265;29;1050;-54
2023/10/18 13:02:04;;;;;;;;;;;;;;;16.87;53.96;101074.50;4932932;29;1236;-52
2023/10/18 13:04:30;;;;;;;;;;;;;;;16.67;54.44;101078.00;4938149;29;2306;-54
2023/10/18 13:06:55;;;;;;;;;;;;;;;16.53;54.40;101077.66;4934850;29;1165;-52
2023/10/18 13:09:21;;;;;;;;;;;;;;;17.41;53.07;101070.59;4940182;29;1532;-51
2023/10/18 13:11:52;;;;;;;;;;;;;;;17.17;53.40;101075.78;4926086;29;1051;-54
2023/10/18 13:14:24;;;;;;;;;;;;;;;16.78;54.00;101065.97;4931853;29;1136;-53
2023/10/18 13:16:49;;;;;;;;;;;;;;;16.63;54.34;101072.19;4938645;29;1007;-50
2023/10/18 13:19:15;;;;;;;;;;;;;;;17.67;52.17;101071.47;4944195;29;1119;-54
2023/10/18 13:21:41;;;;;;;;;;;;;;;17.03;53.63;101069.94;4939489;29;1342;-50
2023/10/18 13:26:48;;;;;;;;;;;;;;;16.82;54.25;101072.56;4934175;29;1300;-52
2023/10/18 13:31:45;;;;;;;;;;;;;;;16.87;53.83;101061.63;4939784;29;1082;-51
2023/10/18 13:34:18;;;;;;;;;;;;;;;16.70;53.99;101064.53;4939736;29;2270;-54
2023/10/18 13:36:52;;;;;;;;;;;;;;;16.55;54.20;101065.31;4939426;29;1978;-52
2023/10/18 13:39:18;;;;;;;;;;;;;;;16.76;54.13;101055.25;4932258;29;1456;-53
2023/10/18 13:41:47;;;;;;;;;;;;;;;17.70;52.00;101054.41;4929196;29;1130;-49
2023/10/18 13:44:13;;;;;;;;;;;;;;;16.99;53.88;101066.09;4928434;29;1202;-53
2023/10/18 13:46:38;;;;;;;;;;;;;;;16.74;54.26;101062.91;4939079;29;1334;-53
2023/10/18 13:49:08;;;;;;;;;;;;;;;16.60;54.17;101053.53;4939875;29;1272;-54
2023/10/18 13:51:37;;;;;;;;;;;;;;;16.49;54.26;101054.56;4936943;29;1540;-54